createdAt,value
2023-03-18T00:02:37.413Z,5.40
2023-03-18T00:05:11.669Z,5.33
2023-03-18T00:07:44.950Z,6.00
2023-03-18T00:10:18.873Z,6.20
2023-03-18T00:12:52.100Z,6.50
2023-03-18T00:15:25.224Z,6.50
2023-03-18T00:17:59.615Z,6.20
2023-03-18T00:20:33.897Z,6.73
2023-03-18T00:23:07.327Z,6.80
2023-03-18T00:25:40.809Z,6.90
2023-03-18T00:28:13.996Z,6.70
2023-03-18T00:30:47.227Z,6.80
2023-03-18T00:33:20.815Z,7.30
2023-03-18T00:35:55.478Z,6.30
2023-03-18T00:38:28.660Z,6.30
2023-03-18T00:41:05.605Z,6.33
2023-03-18T00:43:40.245Z,6.80
2023-03-18T00:46:13.698Z,6.87
2023-03-18T00:48:46.870Z,6.80
2023-03-18T00:51:20.288Z,6.90
2023-03-18T00:53:55.257Z,6.80
2023-03-18T00:56:29.267Z,6.80
2023-03-18T00:59:02.225Z,7.20
2023-03-18T01:01:35.812Z,6.97
2023-03-18T01:04:09.165Z,7.50
2023-03-18T01:06:43.315Z,7.70
2023-03-18T01:09:16.363Z,7.20
2023-03-18T01:11:49.484Z,7.00
2023-03-18T01:14:22.634Z,7.10
2023-03-18T01:16:56.046Z,6.93
2023-03-18T01:19:29.238Z,6.90
2023-03-18T01:22:05.306Z,6.87
2023-03-18T01:24:38.720Z,7.00
2023-03-18T01:27:11.965Z,7.33
2023-03-18T01:29:45.009Z,7.00
2023-03-18T01:32:18.410Z,6.70
2023-03-18T01:34:51.700Z,7.00
2023-03-18T01:37:28.677Z,7.20
2023-03-18T01:40:02.804Z,7.60
2023-03-18T01:42:36.638Z,7.23
2023-03-18T01:45:23.757Z,7.60
2023-03-18T01:47:57.619Z,7.37
2023-03-18T01:50:32.984Z,7.40
2023-03-18T01:53:11.220Z,7.80
2023-03-18T01:55:44.941Z,7.40
2023-03-18T01:58:31.398Z,7.47
2023-03-18T02:01:06.256Z,6.90
2023-03-18T02:03:39.843Z,7.13
2023-03-18T02:06:14.043Z,7.07
2023-03-18T02:08:47.254Z,7.47
2023-03-18T02:11:20.194Z,7.47
2023-03-18T02:13:53.108Z,7.57
2023-03-18T02:16:30.756Z,8.57
2023-03-18T02:19:14.570Z,8.47
2023-03-18T02:22:25.644Z,8.00
2023-03-18T02:25:03.298Z,7.60
2023-03-18T02:27:38.244Z,7.80
2023-03-18T02:30:13.335Z,8.23
2023-03-18T02:32:48.386Z,7.63
2023-03-18T02:35:22.647Z,7.67
2023-03-18T02:37:55.758Z,7.30
2023-03-18T02:40:39.763Z,7.20
2023-03-18T02:43:15.323Z,7.10
2023-03-18T02:45:59.108Z,7.77
2023-03-18T02:48:35.248Z,7.10
2023-03-18T02:51:13.872Z,6.90
2023-03-18T02:53:47.752Z,6.40
2023-03-18T02:56:20.813Z,6.50
2023-03-18T02:58:53.698Z,6.67
2023-03-18T03:01:26.790Z,7.20
2023-03-18T03:03:59.797Z,6.63
2023-03-18T03:06:32.831Z,6.80
2023-03-18T03:09:06.060Z,6.70
2023-03-18T03:11:39.591Z,6.70
2023-03-18T03:14:13.325Z,6.50
2023-03-18T03:16:46.310Z,6.60
2023-03-18T03:19:19.413Z,6.70
2023-03-18T03:21:54.795Z,6.90
2023-03-18T03:24:27.875Z,6.90
2023-03-18T03:27:04.242Z,6.57
2023-03-18T03:29:36.476Z,6.70
2023-03-18T03:32:10.140Z,6.70
2023-03-18T03:34:43.419Z,6.60
2023-03-18T03:37:16.676Z,6.90
2023-03-18T03:39:49.618Z,7.00
2023-03-18T03:42:22.600Z,6.70
2023-03-18T03:44:56.152Z,6.90
2023-03-18T03:47:29.376Z,6.80
2023-03-18T03:50:02.301Z,7.00
2023-03-18T03:52:35.410Z,6.70
2023-03-18T03:55:09.135Z,7.10
2023-03-18T03:57:42.356Z,7.10
2023-03-18T04:00:17.361Z,7.10
2023-03-18T04:02:51.088Z,7.03
2023-03-18T04:05:26.257Z,6.90
2023-03-18T04:08:00.588Z,7.00
2023-03-18T04:10:34.053Z,7.10
2023-03-18T04:13:08.042Z,7.10
2023-03-18T04:15:40.803Z,6.80
2023-03-18T04:18:13.667Z,6.90
2023-03-18T04:20:46.670Z,6.80
2023-03-18T04:23:19.560Z,6.70
2023-03-18T04:25:52.566Z,6.80
2023-03-18T04:28:25.542Z,6.70
2023-03-18T04:31:02.800Z,6.60
2023-03-18T04:33:36.194Z,6.80
2023-03-18T04:36:09.418Z,6.90
2023-03-18T04:38:42.404Z,6.90
2023-03-18T04:41:15.314Z,6.80
2023-03-18T04:43:48.681Z,6.00
2023-03-18T04:46:22.060Z,6.90
2023-03-18T04:48:55.366Z,6.90
2023-03-18T04:51:29.450Z,6.80
2023-03-18T04:54:02.606Z,6.70
2023-03-18T04:56:35.901Z,7.00
2023-03-18T04:59:08.737Z,7.00
2023-03-18T05:01:42.141Z,6.73
2023-03-18T05:04:15.034Z,6.70
2023-03-18T05:06:48.673Z,6.30
2023-03-18T05:09:21.721Z,6.90
2023-03-18T05:11:54.645Z,6.90
2023-03-18T05:14:27.582Z,6.20
2023-03-18T05:17:00.589Z,6.27
2023-03-18T05:19:33.554Z,6.40
2023-03-18T05:22:06.572Z,6.10
2023-03-18T05:24:39.773Z,5.80
2023-03-18T05:27:14.097Z,6.30
2023-03-18T05:29:47.194Z,6.50
2023-03-18T05:32:22.680Z,6.60
2023-03-18T05:34:55.786Z,11.30
2023-03-18T05:37:29.021Z,6.90
2023-03-18T05:40:02.129Z,6.53
2023-03-18T05:42:38.633Z,7.00
2023-03-18T05:45:10.442Z,6.90
2023-03-18T05:47:43.650Z,6.93
2023-03-18T05:50:17.644Z,7.10
2023-03-18T05:52:53.017Z,7.00
2023-03-18T05:55:26.369Z,6.90
2023-03-18T05:58:04.096Z,7.20
2023-03-18T06:00:37.403Z,7.70
2023-03-18T06:03:11.035Z,6.80
2023-03-18T06:05:44.070Z,6.70
2023-03-18T06:08:17.193Z,8.40
2023-03-18T06:10:50.357Z,6.47
2023-03-18T06:13:23.687Z,6.90
2023-03-18T06:16:00.624Z,7.20
2023-03-18T06:18:33.540Z,7.20
2023-03-18T06:21:11.124Z,7.20
2023-03-18T06:23:44.176Z,7.50
2023-03-18T06:26:17.164Z,9.20
2023-03-18T06:28:50.538Z,9.70
2023-03-18T06:31:24.387Z,6.50
2023-03-18T06:33:58.455Z,6.90
2023-03-18T06:36:31.544Z,6.57
2023-03-18T06:39:04.874Z,6.90
2023-03-18T06:41:37.861Z,6.40
2023-03-18T06:44:11.133Z,6.47
2023-03-18T06:46:44.917Z,6.30
2023-03-18T06:49:18.806Z,7.03
2023-03-18T06:51:51.810Z,6.50
2023-03-18T06:54:24.918Z,7.00
2023-03-18T06:56:58.044Z,7.07
2023-03-18T06:59:31.184Z,10.57
2023-03-18T07:02:04.192Z,8.40
2023-03-18T07:04:37.030Z,7.27
2023-03-18T07:07:14.924Z,7.70
2023-03-18T07:09:48.476Z,8.00
2023-03-18T07:12:21.544Z,8.90
2023-03-18T07:14:55.629Z,9.20
2023-03-18T07:17:28.781Z,8.60
2023-03-18T07:20:01.757Z,7.50
2023-03-18T07:22:35.036Z,7.40
2023-03-18T07:25:08.444Z,6.90
2023-03-18T07:27:41.867Z,7.20
2023-03-18T07:30:18.983Z,9.50
2023-03-18T07:32:52.094Z,6.30
2023-03-18T07:35:25.076Z,6.30
2023-03-18T07:37:58.001Z,6.60
2023-03-18T07:40:31.060Z,6.70
2023-03-18T07:43:03.988Z,9.70
2023-03-18T07:45:37.030Z,8.30
2023-03-18T07:48:10.198Z,6.40
2023-03-18T07:50:43.748Z,6.40
2023-03-18T07:53:21.083Z,6.40
2023-03-18T07:55:54.187Z,6.43
2023-03-18T07:58:27.621Z,6.10
2023-03-18T08:01:01.767Z,8.40
2023-03-18T08:03:35.338Z,6.70
2023-03-18T08:06:08.485Z,6.40
2023-03-18T08:08:41.632Z,6.90
2023-03-18T08:11:14.765Z,6.80
2023-03-18T08:13:52.144Z,6.70
2023-03-18T08:16:25.131Z,6.40
2023-03-18T08:19:02.425Z,6.80
2023-03-18T08:21:35.490Z,6.60
2023-03-18T08:24:08.659Z,7.77
2023-03-18T08:26:41.661Z,8.07
2023-03-18T08:29:14.647Z,7.60
2023-03-18T08:31:47.817Z,6.90
2023-03-18T08:34:20.837Z,6.97
2023-03-18T08:36:54.179Z,6.50
2023-03-18T08:39:27.205Z,6.00
2023-03-18T08:42:00.149Z,6.60
2023-03-18T08:44:33.224Z,6.67
2023-03-18T08:47:06.222Z,6.20
2023-03-18T08:49:41.310Z,6.27
2023-03-18T08:52:14.904Z,6.20
2023-03-18T08:54:47.833Z,5.80
2023-03-18T08:57:20.868Z,6.10
2023-03-18T08:59:58.057Z,6.10
2023-03-18T09:02:31.245Z,6.00
2023-03-18T09:05:04.278Z,6.10
2023-03-18T09:07:37.438Z,6.10
2023-03-18T09:10:11.547Z,6.03
2023-03-18T09:12:48.839Z,6.00
2023-03-18T09:15:25.606Z,5.70
2023-03-18T09:18:11.155Z,5.50
2023-03-18T09:20:32.869Z,6.13
2023-03-18T09:23:10.362Z,5.30
2023-03-18T09:25:44.641Z,5.50
2023-03-18T09:28:17.686Z,5.90
2023-03-18T09:30:50.956Z,5.70
2023-03-18T09:33:24.148Z,5.50
2023-03-18T09:35:57.390Z,5.40
2023-03-18T09:38:30.486Z,5.27
2023-03-18T09:41:08.531Z,5.20
2023-03-18T09:43:58.263Z,4.93
2023-03-18T09:46:48.668Z,5.10
2023-03-18T09:49:39.273Z,5.40
2023-03-18T09:52:26.867Z,5.43
2023-03-18T09:55:32.086Z,5.60
2023-03-18T09:58:06.969Z,5.20
2023-03-18T10:00:41.369Z,5.40
2023-03-18T10:03:21.786Z,5.70
2023-03-18T10:05:58.899Z,5.60
2023-03-18T10:08:56.614Z,8.10
2023-03-18T10:11:31.270Z,6.77
2023-03-18T10:14:22.607Z,5.90
2023-03-18T10:17:12.291Z,5.50
2023-03-18T10:20:06.213Z,5.70
2023-03-18T10:22:56.580Z,5.70
2023-03-18T10:25:40.607Z,5.60
2023-03-18T10:28:27.867Z,5.93
2023-03-18T10:31:23.667Z,5.70
2023-03-18T10:34:04.591Z,5.80
2023-03-18T10:36:42.133Z,6.00
2023-03-18T10:39:17.342Z,5.90
2023-03-18T10:41:54.365Z,5.90
2023-03-18T10:44:41.804Z,5.67
2023-03-18T10:47:25.785Z,5.40
2023-03-18T10:50:14.084Z,5.40
2023-03-18T10:53:16.768Z,5.20
2023-03-18T10:55:51.184Z,5.20
2023-03-18T10:58:24.364Z,5.50
2023-03-18T11:00:57.424Z,6.30
2023-03-18T11:03:35.418Z,5.50
2023-03-18T11:06:10.302Z,6.30
2023-03-18T11:08:43.734Z,7.30
2023-03-18T11:11:21.567Z,5.47
2023-03-18T11:13:59.627Z,5.53
2023-03-18T11:16:46.555Z,5.20
2023-03-18T11:19:34.196Z,5.40
2023-03-18T11:22:15.738Z,5.20
2023-03-18T11:24:48.935Z,5.53
2023-03-18T11:27:24.029Z,6.03
2023-03-18T11:30:04.199Z,5.53
2023-03-18T11:32:40.816Z,5.40
2023-03-18T11:35:15.997Z,5.60
2023-03-18T11:37:50.333Z,5.30
2023-03-18T11:40:25.657Z,5.40
2023-03-18T11:43:03.335Z,5.53
2023-03-18T11:45:55.351Z,5.40
2023-03-18T11:48:41.796Z,5.73
2023-03-18T11:51:50.564Z,5.60
2023-03-18T11:54:42.223Z,5.70
2023-03-18T11:57:29.195Z,5.90
2023-03-18T12:00:32.840Z,5.90
2023-03-18T12:03:39.808Z,5.50
2023-03-18T12:06:18.447Z,5.50
2023-03-18T12:09:18.134Z,5.70
2023-03-18T12:12:05.215Z,5.60
2023-03-18T12:14:51.928Z,5.77
2023-03-18T12:17:32.569Z,5.70
2023-03-18T12:20:41.750Z,5.70
2023-03-18T12:23:16.978Z,6.43
2023-03-18T12:26:13.036Z,5.70
2023-03-18T12:29:09.973Z,5.93
2023-03-18T12:31:47.869Z,6.30
2023-03-18T12:34:23.230Z,6.10
2023-03-18T12:37:10.007Z,6.13
2023-03-18T12:40:02.592Z,5.90
2023-03-18T12:42:58.452Z,5.73
2023-03-18T12:45:33.848Z,6.10
2023-03-18T12:48:09.034Z,6.20
2023-03-18T12:50:52.597Z,6.20
2023-03-18T12:53:40.415Z,6.30
2023-03-18T12:56:15.972Z,7.47
2023-03-18T12:59:00.577Z,8.40
2023-03-18T13:01:38.176Z,6.30
2023-03-18T13:04:25.078Z,6.30
2023-03-18T13:07:21.504Z,6.40
2023-03-18T13:10:02.476Z,6.47
2023-03-18T13:12:43.563Z,6.63
2023-03-18T13:15:36.580Z,6.60
2023-03-18T13:18:11.738Z,6.50
2023-03-18T13:20:45.988Z,6.40
2023-03-18T13:23:35.965Z,6.30
2023-03-18T13:26:30.975Z,6.30
2023-03-18T13:29:27.980Z,6.20
2023-03-18T13:32:18.144Z,6.10
2023-03-18T13:35:13.181Z,6.10
2023-03-18T13:38:06.877Z,6.10
2023-03-18T13:41:07.960Z,6.20
2023-03-18T13:43:45.664Z,6.10
2023-03-18T13:46:24.447Z,5.80
2023-03-18T13:49:02.178Z,6.00
2023-03-18T13:51:37.416Z,6.07
2023-03-18T13:54:18.176Z,6.10
2023-03-18T13:56:53.997Z,6.20
2023-03-18T13:59:41.936Z,6.40
2023-03-18T14:02:32.183Z,6.20
2023-03-18T14:05:06.247Z,6.10
2023-03-18T14:07:41.355Z,6.27
2023-03-18T14:10:22.668Z,6.00
2023-03-18T14:12:55.639Z,5.90
2023-03-18T14:15:46.370Z,5.80
2023-03-18T14:18:30.919Z,6.30
2023-03-18T14:21:07.457Z,6.10
2023-03-18T14:23:43.024Z,6.10
2023-03-18T14:26:29.995Z,6.00
2023-03-18T14:29:11.356Z,6.30
2023-03-18T14:31:46.548Z,6.07
2023-03-18T14:34:24.384Z,6.33
2023-03-18T14:37:02.270Z,6.30
2023-03-18T14:39:40.963Z,6.13
2023-03-18T14:42:44.067Z,6.10
2023-03-18T14:45:30.562Z,6.20
2023-03-18T14:48:04.754Z,6.10
2023-03-18T14:50:45.639Z,6.70
2023-03-18T14:53:48.830Z,6.30
2023-03-18T14:56:24.194Z,5.73
2023-03-18T14:58:58.297Z,6.10
2023-03-18T15:01:34.938Z,6.20
2023-03-18T15:04:09.223Z,6.20
2023-03-18T15:06:43.594Z,6.20
2023-03-18T15:09:25.380Z,6.30
2023-03-18T15:11:58.647Z,6.50
2023-03-18T15:14:38.608Z,6.30
2023-03-18T15:17:13.946Z,6.10
2023-03-18T15:19:47.135Z,6.23
2023-03-18T15:22:26.306Z,6.17
2023-03-18T15:25:11.468Z,6.20
2023-03-18T15:27:49.194Z,6.30
2023-03-18T15:30:35.955Z,6.07
2023-03-18T15:33:14.395Z,6.30
2023-03-18T15:35:49.388Z,6.23
2023-03-18T15:38:23.216Z,6.70
2023-03-18T15:41:15.836Z,6.93
2023-03-18T15:43:50.512Z,6.70
2023-03-18T15:46:29.312Z,6.80
2023-03-18T15:49:07.369Z,7.00
2023-03-18T15:51:51.084Z,6.70
2023-03-18T15:54:32.194Z,6.80
2023-03-18T15:57:07.243Z,6.70
2023-03-18T15:59:41.333Z,6.60
2023-03-18T16:02:21.074Z,7.10
2023-03-18T16:04:54.014Z,7.00
2023-03-18T16:07:28.797Z,6.90
2023-03-18T16:10:01.985Z,6.87
2023-03-18T16:12:35.226Z,6.53
2023-03-18T16:15:11.664Z,6.60
2023-03-18T16:17:44.798Z,6.30
2023-03-18T16:20:22.484Z,6.20
2023-03-18T16:22:57.893Z,6.20
2023-03-18T16:25:31.218Z,6.20
2023-03-18T16:28:06.013Z,6.00
2023-03-18T16:30:40.029Z,6.20
2023-03-18T16:33:14.915Z,6.30
2023-03-18T16:35:49.085Z,5.90
2023-03-18T16:38:22.749Z,5.60
2023-03-18T16:40:56.256Z,5.80
2023-03-18T16:43:33.868Z,6.00
2023-03-18T16:46:07.633Z,6.37
2023-03-18T16:48:41.070Z,5.80
2023-03-18T16:51:14.797Z,5.80
2023-03-18T16:53:47.877Z,5.90
2023-03-18T16:56:25.437Z,5.90
2023-03-18T16:58:59.907Z,5.60
2023-03-18T17:01:33.238Z,5.70
2023-03-18T17:04:11.516Z,6.00
2023-03-18T17:06:44.722Z,6.07
2023-03-18T17:09:17.688Z,6.00
2023-03-18T17:11:51.626Z,6.20
2023-03-18T17:14:44.809Z,6.10
2023-03-18T17:17:19.730Z,6.20
2023-03-18T17:19:55.617Z,6.73
2023-03-18T17:22:33.190Z,6.30
2023-03-18T17:25:06.678Z,6.40
2023-03-18T17:27:41.609Z,6.60
2023-03-18T17:30:28.249Z,6.43
2023-03-18T17:33:01.359Z,6.50
2023-03-18T17:35:34.950Z,6.60
2023-03-18T17:38:09.582Z,6.40
2023-03-18T17:40:43.552Z,6.67
2023-03-18T17:43:24.652Z,6.50
2023-03-18T17:45:58.808Z,8.50
2023-03-18T17:48:32.693Z,7.90
2023-03-18T17:51:07.820Z,7.80
2023-03-18T17:53:58.406Z,6.10
2023-03-18T17:56:32.500Z,6.40
2023-03-18T17:59:06.412Z,7.90
2023-03-18T18:01:39.554Z,6.00
2023-03-18T18:04:17.914Z,6.10
2023-03-18T18:06:51.162Z,6.90
2023-03-18T18:09:24.210Z,5.90
2023-03-18T18:11:57.204Z,6.10
2023-03-18T18:14:32.019Z,6.30
2023-03-18T18:17:04.982Z,6.40
2023-03-18T18:19:38.332Z,6.50
2023-03-18T18:22:19.856Z,7.07
2023-03-18T18:24:56.681Z,7.17
2023-03-18T18:27:29.600Z,7.03
2023-03-18T18:30:02.811Z,6.10
2023-03-18T18:32:36.179Z,6.20
2023-03-18T18:35:09.730Z,6.00
2023-03-18T18:37:42.902Z,5.90
2023-03-18T18:40:18.264Z,5.90
2023-03-18T18:42:52.434Z,6.00
2023-03-18T18:45:25.803Z,5.80
2023-03-18T18:48:00.194Z,5.90
2023-03-18T18:50:41.935Z,5.50
2023-03-18T18:53:33.122Z,6.90
2023-03-18T18:56:08.696Z,5.80
2023-03-18T18:58:41.797Z,5.90
2023-03-18T19:01:15.599Z,5.90
2023-03-18T19:03:48.866Z,6.20
2023-03-18T19:06:33.299Z,6.03
2023-03-18T19:09:10.681Z,6.60
2023-03-18T19:11:43.474Z,6.50
2023-03-18T19:14:30.454Z,6.20
2023-03-18T19:17:04.868Z,6.10
2023-03-18T19:19:38.921Z,6.10
2023-03-18T19:22:19.906Z,6.10
2023-03-18T19:24:53.107Z,5.80
2023-03-18T19:27:34.304Z,6.00
2023-03-18T19:30:08.977Z,6.50
2023-03-18T19:32:41.785Z,6.60
2023-03-18T19:35:16.368Z,6.70
2023-03-18T19:37:50.720Z,6.10
2023-03-18T19:40:29.941Z,6.20
2023-03-18T19:43:02.440Z,6.20
2023-03-18T19:45:36.974Z,6.60
2023-03-18T19:48:10.159Z,6.70
2023-03-18T19:50:51.208Z,6.60
2023-03-18T19:53:24.052Z,6.40
2023-03-18T19:55:57.221Z,6.70
2023-03-18T19:58:31.654Z,6.30
2023-03-18T20:01:06.109Z,6.60
2023-03-18T20:03:39.310Z,6.20
2023-03-18T20:06:12.194Z,6.27
2023-03-18T20:08:45.678Z,6.20
2023-03-18T20:11:19.881Z,6.30
2023-03-18T20:13:53.202Z,6.67
2023-03-18T20:16:27.241Z,6.20
2023-03-18T20:19:00.499Z,6.10
2023-03-18T20:21:34.219Z,6.80
2023-03-18T20:24:09.842Z,6.80
2023-03-18T20:26:44.027Z,6.90
2023-03-18T20:29:21.805Z,6.50
2023-03-18T20:31:55.070Z,6.70
2023-03-18T20:34:29.161Z,7.00
2023-03-18T20:37:02.241Z,6.30
2023-03-18T20:39:35.443Z,6.80
2023-03-18T20:42:08.513Z,6.80
2023-03-18T20:44:41.382Z,7.07
2023-03-18T20:47:22.485Z,7.40
2023-03-18T20:49:49.500Z,7.40
2023-03-18T20:52:33.001Z,7.30
2023-03-18T20:55:05.917Z,7.40
2023-03-18T20:57:39.504Z,7.10
2023-03-18T21:00:15.277Z,7.30
2023-03-18T21:02:48.352Z,7.13
2023-03-18T21:05:21.684Z,7.00
2023-03-18T21:07:54.834Z,7.50
2023-03-18T21:10:29.213Z,7.30
2023-03-18T21:13:02.246Z,8.13
2023-03-18T21:15:35.425Z,7.80
2023-03-18T21:18:08.841Z,7.40
2023-03-18T21:20:41.748Z,7.00
2023-03-18T21:23:23.095Z,6.70
2023-03-18T21:25:57.029Z,6.50
2023-03-18T21:28:31.930Z,7.37
2023-03-18T21:31:06.751Z,7.90
2023-03-18T21:33:39.893Z,7.90
2023-03-18T21:36:17.331Z,7.67
2023-03-18T21:38:50.387Z,7.70
2023-03-18T21:41:29.260Z,8.10
2023-03-18T21:44:21.397Z,7.40
2023-03-18T21:46:47.947Z,6.50
2023-03-18T21:49:21.392Z,6.60
2023-03-18T21:51:54.591Z,6.60
2023-03-18T21:54:27.933Z,6.30
2023-03-18T21:57:00.833Z,6.60
2023-03-18T21:59:33.860Z,6.07
2023-03-18T22:02:07.494Z,6.17
2023-03-18T22:04:50.465Z,5.90
2023-03-18T22:07:23.279Z,5.90
2023-03-18T22:09:56.234Z,5.90
2023-03-18T22:12:33.847Z,5.87
2023-03-18T22:15:07.023Z,6.10
2023-03-18T22:17:44.506Z,6.60
2023-03-18T22:20:18.363Z,6.50
2023-03-18T22:22:53.757Z,5.90
2023-03-18T22:25:39.879Z,6.30
2023-03-18T22:28:14.053Z,6.10
2023-03-18T22:30:48.056Z,6.27
2023-03-18T22:33:26.790Z,6.40
2023-03-18T22:35:59.851Z,5.90
2023-03-18T22:38:33.712Z,5.60
2023-03-18T22:41:07.269Z,5.30
2023-03-18T22:43:41.421Z,5.40
2023-03-18T22:46:15.167Z,5.50
2023-03-18T22:48:47.983Z,5.10
2023-03-18T22:51:32.107Z,5.20
2023-03-18T22:54:05.170Z,5.00
2023-03-18T22:56:39.489Z,5.40
2023-03-18T22:59:15.072Z,5.70
2023-03-18T23:01:48.399Z,5.90
2023-03-18T23:04:21.861Z,6.00
2023-03-18T23:06:55.037Z,5.90
2023-03-18T23:09:28.036Z,6.10
2023-03-18T23:12:06.973Z,5.77
2023-03-18T23:14:40.207Z,5.60
2023-03-18T23:17:15.663Z,5.70
2023-03-18T23:19:49.019Z,5.50
2023-03-18T23:22:34.584Z,5.70
2023-03-18T23:25:08.609Z,6.50
2023-03-18T23:27:44.963Z,6.60
2023-03-18T23:30:18.907Z,7.13
2023-03-18T23:32:52.219Z,6.33
2023-03-18T23:35:29.824Z,6.30
2023-03-18T23:38:03.021Z,6.00
2023-03-18T23:40:36.504Z,5.70
2023-03-18T23:43:10.936Z,5.50
2023-03-18T23:45:43.991Z,5.60
2023-03-18T23:48:20.286Z,5.80
2023-03-18T23:50:55.935Z,6.20
2023-03-18T23:53:28.855Z,5.80
2023-03-18T23:56:01.807Z,5.70
2023-03-18T23:58:37.671Z,5.67
